sensor_id;sensor_type;location;lat;lon;timestamp;temperature;humidity
2489;DHT22;1255;48.716;9.124;2023-08-17T00:00:48;19.20;99.90
2489;DHT22;1255;48.716;9.124;2023-08-17T00:03:15;19.20;99.90
2489;DHT22;1255;48.716;9.124;2023-08-17T00:05:42;19.20;99.90
2489;DHT22;1255;48.716;9.124;2023-08-17T00:08:08;19.20;99.90
2489;DHT22;1255;48.716;9.124;2023-08-17T00:10:35;19.20;99.90
2489;DHT22;1255;48.716;9.124;2023-08-17T00:13:04;19.20;99.90
2489;DHT22;1255;48.716;9.124;2023-08-17T00:15:32;19.20;99.90
2489;DHT22;1255;48.716;9.124;2023-08-17T00:17:59;19.20;99.90
2489;DHT22;1255;48.716;9.124;2023-08-17T00:20:26;19.10;99.90
2489;DHT22;1255;48.716;9.124;2023-08-17T00:22:52;19.10;99.90
2489;DHT22;1255;48.716;9.124;2023-08-17T00:25:19;19.10;99.90
2489;DHT22;1255;48.716;9.124;2023-08-17T00:27:46;19.10;99.90
2489;DHT22;1255;48.716;9.124;2023-08-17T00:30:13;19.10;99.90
2489;DHT22;1255;48.716;9.124;2023-08-17T00:32:41;19.10;99.90
2489;DHT22;1255;48.716;9.124;2023-08-17T00:35:08;19.10;99.90
2489;DHT22;1255;48.716;9.124;2023-08-17T00:37:34;19.00;99.90
2489;DHT22;1255;48.716;9.124;2023-08-17T00:40:01;19.00;99.90
2489;DHT22;1255;48.716;9.124;2023-08-17T00:42:29;19.00;99.90
2489;DHT22;1255;48.716;9.124;2023-08-17T00:44:56;19.00;99.90
2489;DHT22;1255;48.716;9.124;2023-08-17T00:47:24;18.90;99.90
2489;DHT22;1255;48.716;9.124;2023-08-17T00:49:53;18.90;99.90
2489;DHT22;1255;48.716;9.124;2023-08-17T00:52:20;18.90;99.90
2489;DHT22;1255;48.716;9.124;2023-08-17T00:54:47;18.90;99.90
2489;DHT22;1255;48.716;9.124;2023-08-17T00:57:14;18.90;99.90
2489;DHT22;1255;48.716;9.124;2023-08-17T00:59:41;18.90;99.90
2489;DHT22;1255;48.716;9.124;2023-08-17T01:02:08;18.90;99.90
2489;DHT22;1255;48.716;9.124;2023-08-17T01:04:35;18.80;99.90
2489;DHT22;1255;48.716;9.124;2023-08-17T01:07:03;18.80;99.90
2489;DHT22;1255;48.716;9.124;2023-08-17T01:09:30;18.80;99.90
2489;DHT22;1255;48.716;9.124;2023-08-17T01:12:02;18.80;99.90
2489;DHT22;1255;48.716;9.124;2023-08-17T01:14:39;18.70;99.90
2489;DHT22;1255;48.716;9.124;2023-08-17T01:17:12;18.80;99.90
2489;DHT22;1255;48.716;9.124;2023-08-17T01:19:41;18.70;99.90
2489;DHT22;1255;48.716;9.124;2023-08-17T01:22:11;18.70;99.90
2489;DHT22;1255;48.716;9.124;2023-08-17T01:24:40;18.70;99.90
2489;DHT22;1255;48.716;9.124;2023-08-17T01:27:07;18.70;99.90
2489;DHT22;1255;48.716;9.124;2023-08-17T01:29:34;18.70;99.90
2489;DHT22;1255;48.716;9.124;2023-08-17T01:32:06;18.70;99.90
2489;DHT22;1255;48.716;9.124;2023-08-17T01:34:38;18.80;99.90
2489;DHT22;1255;48.716;9.124;2023-08-17T01:37:07;18.80;99.90
2489;DHT22;1255;48.716;9.124;2023-08-17T01:39:37;18.80;99.90
2489;DHT22;1255;48.716;9.124;2023-08-17T01:42:07;18.80;99.90
2489;DHT22;1255;48.716;9.124;2023-08-17T01:44:34;18.80;99.90
2489;DHT22;1255;48.716;9.124;2023-08-17T01:47:02;18.80;99.90
2489;DHT22;1255;48.716;9.124;2023-08-17T01:49:29;18.80;99.90
2489;DHT22;1255;48.716;9.124;2023-08-17T01:51:55;18.90;99.90
2489;DHT22;1255;48.716;9.124;2023-08-17T01:54:23;18.90;99.90
2489;DHT22;1255;48.716;9.124;2023-08-17T01:56:50;18.90;99.90
2489;DHT22;1255;48.716;9.124;2023-08-17T01:59:18;18.90;99.90
2489;DHT22;1255;48.716;9.124;2023-08-17T02:01:45;18.90;99.90
2489;DHT22;1255;48.716;9.124;2023-08-17T02:04:11;19.00;99.90
2489;DHT22;1255;48.716;9.124;2023-08-17T02:06:38;19.00;99.90
2489;DHT22;1255;48.716;9.124;2023-08-17T02:09:05;19.00;99.90
2489;DHT22;1255;48.716;9.124;2023-08-17T02:11:32;19.00;99.90
2489;DHT22;1255;48.716;9.124;2023-08-17T02:13:58;19.00;99.90
2489;DHT22;1255;48.716;9.124;2023-08-17T02:16:26;19.00;99.90
2489;DHT22;1255;48.716;9.124;2023-08-17T02:18:53;19.10;99.90
2489;DHT22;1255;48.716;9.124;2023-08-17T02:21:20;19.10;99.90
2489;DHT22;1255;48.716;9.124;2023-08-17T02:23:46;19.10;99.90
2489;DHT22;1255;48.716;9.124;2023-08-17T02:26:13;19.10;99.90
2489;DHT22;1255;48.716;9.124;2023-08-17T02:28:40;19.10;99.90
2489;DHT22;1255;48.716;9.124;2023-08-17T02:31:06;19.10;99.90
2489;DHT22;1255;48.716;9.124;2023-08-17T02:33:34;19.10;99.90
2489;DHT22;1255;48.716;9.124;2023-08-17T02:36:02;19.20;99.90
2489;DHT22;1255;48.716;9.124;2023-08-17T02:38:29;19.20;99.90
2489;DHT22;1255;48.716;9.124;2023-08-17T02:40:56;19.20;99.90
2489;DHT22;1255;48.716;9.124;2023-08-17T02:43:23;19.20;99.90
2489;DHT22;1255;48.716;9.124;2023-08-17T02:45:49;19.20;99.90
2489;DHT22;1255;48.716;9.124;2023-08-17T02:48:16;19.30;99.90
2489;DHT22;1255;48.716;9.124;2023-08-17T02:50:44;19.30;99.90
2489;DHT22;1255;48.716;9.124;2023-08-17T02:53:11;19.30;99.90
2489;DHT22;1255;48.716;9.124;2023-08-17T02:55:37;19.30;99.90
2489;DHT22;1255;48.716;9.124;2023-08-17T02:58:04;19.40;99.90
2489;DHT22;1255;48.716;9.124;2023-08-17T03:00:31;19.30;99.90
2489;DHT22;1255;48.716;9.124;2023-08-17T03:02:58;19.30;99.90
2489;DHT22;1255;48.716;9.124;2023-08-17T03:05:24;19.40;99.90
2489;DHT22;1255;48.716;9.124;2023-08-17T03:07:52;19.40;99.90
2489;DHT22;1255;48.716;9.124;2023-08-17T03:10:19;19.40;99.90
2489;DHT22;1255;48.716;9.124;2023-08-17T03:12:46;19.40;99.90
2489;DHT22;1255;48.716;9.124;2023-08-17T03:15:12;19.40;99.90
2489;DHT22;1255;48.716;9.124;2023-08-17T03:17:39;19.30;99.90
2489;DHT22;1255;48.716;9.124;2023-08-17T03:20:07;19.40;99.90
2489;DHT22;1255;48.716;9.124;2023-08-17T03:22:34;19.30;99.90
2489;DHT22;1255;48.716;9.124;2023-08-17T03:25:02;19.30;99.90
2489;DHT22;1255;48.716;9.124;2023-08-17T03:27:29;19.30;99.90
2489;DHT22;1255;48.716;9.124;2023-08-17T03:29:56;19.30;99.90
2489;DHT22;1255;48.716;9.124;2023-08-17T03:32:23;19.30;99.90
2489;DHT22;1255;48.716;9.124;2023-08-17T03:34:49;19.30;99.90
2489;DHT22;1255;48.716;9.124;2023-08-17T03:37:16;19.20;99.90
2489;DHT22;1255;48.716;9.124;2023-08-17T03:39:43;19.30;99.90
2489;DHT22;1255;48.716;9.124;2023-08-17T03:42:11;19.20;99.90
2489;DHT22;1255;48.716;9.124;2023-08-17T03:44:37;19.20;99.90
2489;DHT22;1255;48.716;9.124;2023-08-17T03:47:04;19.20;99.90
2489;DHT22;1255;48.716;9.124;2023-08-17T03:49:31;19.20;99.90
2489;DHT22;1255;48.716;9.124;2023-08-17T03:51:57;19.20;99.90
2489;DHT22;1255;48.716;9.124;2023-08-17T03:54:24;19.20;99.90
2489;DHT22;1255;48.716;9.124;2023-08-17T03:56:52;19.20;99.90
2489;DHT22;1255;48.716;9.124;2023-08-17T03:59:21;19.20;99.90
2489;DHT22;1255;48.716;9.124;2023-08-17T04:01:47;19.20;99.90
2489;DHT22;1255;48.716;9.124;2023-08-17T04:04:14;19.20;99.90
2489;DHT22;1255;48.716;9.124;2023-08-17T04:06:41;19.20;99.90
2489;DHT22;1255;48.716;9.124;2023-08-17T04:09:07;19.20;99.90
2489;DHT22;1255;48.716;9.124;2023-08-17T04:11:35;19.20;99.90
2489;DHT22;1255;48.716;9.124;2023-08-17T04:14:03;19.20;99.90
2489;DHT22;1255;48.716;9.124;2023-08-17T04:16:32;19.20;99.90
2489;DHT22;1255;48.716;9.124;2023-08-17T04:18:59;19.20;99.90
2489;DHT22;1255;48.716;9.124;2023-08-17T04:21:25;19.20;99.90
2489;DHT22;1255;48.716;9.124;2023-08-17T04:23:52;19.20;99.90
2489;DHT22;1255;48.716;9.124;2023-08-17T04:26:19;19.10;99.90
2489;DHT22;1255;48.716;9.124;2023-08-17T04:28:46;19.20;99.90
2489;DHT22;1255;48.716;9.124;2023-08-17T04:31:12;19.10;99.90
2489;DHT22;1255;48.716;9.124;2023-08-17T04:33:41;19.10;99.90
2489;DHT22;1255;48.716;9.124;2023-08-17T04:36:08;19.10;99.90
2489;DHT22;1255;48.716;9.124;2023-08-17T04:38:34;19.10;99.90
2489;DHT22;1255;48.716;9.124;2023-08-17T04:41:01;19.10;99.90
2489;DHT22;1255;48.716;9.124;2023-08-17T04:43:28;19.10;99.90
2489;DHT22;1255;48.716;9.124;2023-08-17T04:45:54;19.10;99.90
2489;DHT22;1255;48.716;9.124;2023-08-17T04:48:21;19.10;99.90
2489;DHT22;1255;48.716;9.124;2023-08-17T04:50:50;19.10;99.90
2489;DHT22;1255;48.716;9.124;2023-08-17T04:53:17;19.20;99.90
2489;DHT22;1255;48.716;9.124;2023-08-17T04:55:44;19.20;99.90
2489;DHT22;1255;48.716;9.124;2023-08-17T04:58:10;19.20;99.90
2489;DHT22;1255;48.716;9.124;2023-08-17T05:00:37;19.10;99.90
2489;DHT22;1255;48.716;9.124;2023-08-17T05:03:04;19.20;99.90
2489;DHT22;1255;48.716;9.124;2023-08-17T05:05:31;19.10;99.90
2489;DHT22;1255;48.716;9.124;2023-08-17T05:07:59;19.20;99.90
2489;DHT22;1255;48.716;9.124;2023-08-17T05:10:26;19.20;99.90
2489;DHT22;1255;48.716;9.124;2023-08-17T05:12:54;19.10;99.90
2489;DHT22;1255;48.716;9.124;2023-08-17T05:15:21;19.20;99.90
2489;DHT22;1255;48.716;9.124;2023-08-17T05:17:48;19.20;99.90
2489;DHT22;1255;48.716;9.124;2023-08-17T05:20:15;19.20;99.90
2489;DHT22;1255;48.716;9.124;2023-08-17T05:22:42;19.20;99.90
2489;DHT22;1255;48.716;9.124;2023-08-17T05:25:10;19.20;99.90
2489;DHT22;1255;48.716;9.124;2023-08-17T05:27:37;19.20;99.90
2489;DHT22;1255;48.716;9.124;2023-08-17T05:30:05;19.20;99.90
2489;DHT22;1255;48.716;9.124;2023-08-17T05:32:32;19.20;99.90
2489;DHT22;1255;48.716;9.124;2023-08-17T05:34:59;19.20;99.90
2489;DHT22;1255;48.716;9.124;2023-08-17T05:37:26;19.20;99.90
2489;DHT22;1255;48.716;9.124;2023-08-17T05:39:53;19.20;99.90
2489;DHT22;1255;48.716;9.124;2023-08-17T05:42:22;19.20;99.90
2489;DHT22;1255;48.716;9.124;2023-08-17T05:44:48;19.30;99.90
2489;DHT22;1255;48.716;9.124;2023-08-17T05:47:16;19.30;99.90
2489;DHT22;1255;48.716;9.124;2023-08-17T05:49:44;19.30;99.90
2489;DHT22;1255;48.716;9.124;2023-08-17T05:52:12;19.30;99.90
2489;DHT22;1255;48.716;9.124;2023-08-17T05:54:39;19.40;99.90
2489;DHT22;1255;48.716;9.124;2023-08-17T05:57:07;19.40;99.90
2489;DHT22;1255;48.716;9.124;2023-08-17T05:59:36;19.40;99.90
2489;DHT22;1255;48.716;9.124;2023-08-17T06:02:03;19.50;99.90
2489;DHT22;1255;48.716;9.124;2023-08-17T06:04:30;19.50;99.90
2489;DHT22;1255;48.716;9.124;2023-08-17T06:06:57;19.50;99.90
2489;DHT22;1255;48.716;9.124;2023-08-17T06:09:24;19.50;99.90
2489;DHT22;1255;48.716;9.124;2023-08-17T06:11:50;19.60;99.90
2489;DHT22;1255;48.716;9.124;2023-08-17T06:14:17;19.60;99.90
2489;DHT22;1255;48.716;9.124;2023-08-17T06:16:45;19.60;99.90
2489;DHT22;1255;48.716;9.124;2023-08-17T06:19:12;19.70;99.90
2489;DHT22;1255;48.716;9.124;2023-08-17T06:21:38;19.60;99.90
2489;DHT22;1255;48.716;9.124;2023-08-17T06:24:06;19.70;99.90
2489;DHT22;1255;48.716;9.124;2023-08-17T06:26:32;19.60;99.90
2489;DHT22;1255;48.716;9.124;2023-08-17T06:28:59;19.70;99.90
2489;DHT22;1255;48.716;9.124;2023-08-17T06:31:26;19.70;99.90
2489;DHT22;1255;48.716;9.124;2023-08-17T06:33:54;19.60;99.90
2489;DHT22;1255;48.716;9.124;2023-08-17T06:36:21;19.60;99.90
2489;DHT22;1255;48.716;9.124;2023-08-17T06:38:47;19.70;99.90
2489;DHT22;1255;48.716;9.124;2023-08-17T06:41:15;19.70;99.90
2489;DHT22;1255;48.716;9.124;2023-08-17T06:43:42;19.70;99.90
2489;DHT22;1255;48.716;9.124;2023-08-17T06:46:08;19.80;99.90
2489;DHT22;1255;48.716;9.124;2023-08-17T06:48:35;19.80;99.90
2489;DHT22;1255;48.716;9.124;2023-08-17T06:51:03;19.80;99.90
2489;DHT22;1255;48.716;9.124;2023-08-17T06:53:30;19.90;99.90
2489;DHT22;1255;48.716;9.124;2023-08-17T06:55:57;19.90;99.90
2489;DHT22;1255;48.716;9.124;2023-08-17T06:58:24;19.90;99.90
2489;DHT22;1255;48.716;9.124;2023-08-17T07:00:50;19.90;99.90
2489;DHT22;1255;48.716;9.124;2023-08-17T07:03:17;20.00;99.90
2489;DHT22;1255;48.716;9.124;2023-08-17T07:05:44;20.00;99.90
2489;DHT22;1255;48.716;9.124;2023-08-17T07:08:12;20.10;99.90
2489;DHT22;1255;48.716;9.124;2023-08-17T07:10:38;20.10;99.90
2489;DHT22;1255;48.716;9.124;2023-08-17T07:13:05;20.00;99.90
2489;DHT22;1255;48.716;9.124;2023-08-17T07:15:32;20.10;99.90
2489;DHT22;1255;48.716;9.124;2023-08-17T07:17:59;20.10;99.90
2489;DHT22;1255;48.716;9.124;2023-08-17T07:20:26;20.10;99.90
2489;DHT22;1255;48.716;9.124;2023-08-17T07:22:52;20.10;99.90
2489;DHT22;1255;48.716;9.124;2023-08-17T07:25:20;20.10;99.90
2489;DHT22;1255;48.716;9.124;2023-08-17T07:27:47;20.20;99.90
2489;DHT22;1255;48.716;9.124;2023-08-17T07:30:14;20.30;99.90
2489;DHT22;1255;48.716;9.124;2023-08-17T07:32:41;20.30;99.90
2489;DHT22;1255;48.716;9.124;2023-08-17T07:35:08;20.40;99.90
2489;DHT22;1255;48.716;9.124;2023-08-17T07:37:35;20.40;99.90
2489;DHT22;1255;48.716;9.124;2023-08-17T07:40:01;20.50;99.90
2489;DHT22;1255;48.716;9.124;2023-08-17T07:42:31;20.50;99.90
2489;DHT22;1255;48.716;9.124;2023-08-17T07:44:58;20.60;99.90
2489;DHT22;1255;48.716;9.124;2023-08-17T07:47:24;20.70;99.90
2489;DHT22;1255;48.716;9.124;2023-08-17T07:49:51;20.70;99.90
2489;DHT22;1255;48.716;9.124;2023-08-17T07:52:18;20.80;99.90
2489;DHT22;1255;48.716;9.124;2023-08-17T07:54:45;20.90;99.90
2489;DHT22;1255;48.716;9.124;2023-08-17T07:57:12;21.10;99.90
2489;DHT22;1255;48.716;9.124;2023-08-17T07:59:40;21.20;99.90
2489;DHT22;1255;48.716;9.124;2023-08-17T08:02:06;21.30;99.90
2489;DHT22;1255;48.716;9.124;2023-08-17T08:04:33;21.40;99.90
2489;DHT22;1255;48.716;9.124;2023-08-17T08:07:00;21.40;99.90
2489;DHT22;1255;48.716;9.124;2023-08-17T08:09:27;21.50;99.90
2489;DHT22;1255;48.716;9.124;2023-08-17T08:11:53;21.60;99.90
2489;DHT22;1255;48.716;9.124;2023-08-17T08:14:20;21.70;99.90
2489;DHT22;1255;48.716;9.124;2023-08-17T08:16:48;21.80;99.90
2489;DHT22;1255;48.716;9.124;2023-08-17T08:19:15;21.90;99.90
2489;DHT22;1255;48.716;9.124;2023-08-17T08:21:41;21.90;99.90
2489;DHT22;1255;48.716;9.124;2023-08-17T08:24:08;22.00;99.90
2489;DHT22;1255;48.716;9.124;2023-08-17T08:26:35;22.10;99.90
2489;DHT22;1255;48.716;9.124;2023-08-17T08:29:01;22.10;99.90
2489;DHT22;1255;48.716;9.124;2023-08-17T08:31:28;22.20;99.90
2489;DHT22;1255;48.716;9.124;2023-08-17T08:33:56;22.30;99.90
2489;DHT22;1255;48.716;9.124;2023-08-17T08:36:24;22.50;99.90
2489;DHT22;1255;48.716;9.124;2023-08-17T08:38:51;22.60;99.90
2489;DHT22;1255;48.716;9.124;2023-08-17T08:41:19;22.60;99.90
2489;DHT22;1255;48.716;9.124;2023-08-17T08:43:46;22.70;99.90
2489;DHT22;1255;48.716;9.124;2023-08-17T08:46:15;22.90;99.90
2489;DHT22;1255;48.716;9.124;2023-08-17T08:48:44;23.10;99.90
2489;DHT22;1255;48.716;9.124;2023-08-17T08:51:16;23.20;99.90
2489;DHT22;1255;48.716;9.124;2023-08-17T08:53:45;23.40;99.90
2489;DHT22;1255;48.716;9.124;2023-08-17T08:56:12;23.50;99.90
2489;DHT22;1255;48.716;9.124;2023-08-17T08:58:40;23.60;99.90
2489;DHT22;1255;48.716;9.124;2023-08-17T09:01:10;23.80;99.90
2489;DHT22;1255;48.716;9.124;2023-08-17T09:03:37;23.80;99.90
2489;DHT22;1255;48.716;9.124;2023-08-17T09:06:04;23.90;99.90
2489;DHT22;1255;48.716;9.124;2023-08-17T09:08:33;24.00;99.90
2489;DHT22;1255;48.716;9.124;2023-08-17T09:11:00;24.10;99.90
2489;DHT22;1255;48.716;9.124;2023-08-17T09:13:27;24.20;99.90
2489;DHT22;1255;48.716;9.124;2023-08-17T09:15:54;24.30;99.90
2489;DHT22;1255;48.716;9.124;2023-08-17T09:18:23;24.40;99.90
2489;DHT22;1255;48.716;9.124;2023-08-17T09:20:51;24.60;99.90
2489;DHT22;1255;48.716;9.124;2023-08-17T09:23:20;24.70;99.90
2489;DHT22;1255;48.716;9.124;2023-08-17T09:25:49;24.80;99.90
2489;DHT22;1255;48.716;9.124;2023-08-17T09:28:18;24.80;99.90
2489;DHT22;1255;48.716;9.124;2023-08-17T09:30:53;24.90;99.90
2489;DHT22;1255;48.716;9.124;2023-08-17T09:33:20;25.00;99.90
2489;DHT22;1255;48.716;9.124;2023-08-17T09:35:48;25.00;99.90
2489;DHT22;1255;48.716;9.124;2023-08-17T09:38:15;25.10;99.90
2489;DHT22;1255;48.716;9.124;2023-08-17T09:40:42;25.20;99.90
2489;DHT22;1255;48.716;9.124;2023-08-17T09:43:10;25.30;99.90
2489;DHT22;1255;48.716;9.124;2023-08-17T09:45:38;25.40;99.90
2489;DHT22;1255;48.716;9.124;2023-08-17T09:48:07;25.50;99.90
2489;DHT22;1255;48.716;9.124;2023-08-17T09:50:35;25.70;99.90
2489;DHT22;1255;48.716;9.124;2023-08-17T09:53:02;25.80;99.90
2489;DHT22;1255;48.716;9.124;2023-08-17T09:55:30;25.80;99.90
2489;DHT22;1255;48.716;9.124;2023-08-17T09:57:58;26.00;99.90
2489;DHT22;1255;48.716;9.124;2023-08-17T10:00:27;26.30;99.90
2489;DHT22;1255;48.716;9.124;2023-08-17T10:02:55;26.40;99.90
2489;DHT22;1255;48.716;9.124;2023-08-17T10:05:27;26.50;99.90
2489;DHT22;1255;48.716;9.124;2023-08-17T10:07:57;26.50;99.90
2489;DHT22;1255;48.716;9.124;2023-08-17T10:10:26;26.50;99.90
2489;DHT22;1255;48.716;9.124;2023-08-17T10:12:59;26.50;99.90
2489;DHT22;1255;48.716;9.124;2023-08-17T10:15:34;26.50;99.90
2489;DHT22;1255;48.716;9.124;2023-08-17T10:18:12;26.40;99.90
2489;DHT22;1255;48.716;9.124;2023-08-17T10:20:43;26.30;99.90
2489;DHT22;1255;48.716;9.124;2023-08-17T10:23:15;26.20;99.90
2489;DHT22;1255;48.716;9.124;2023-08-17T10:25:44;26.30;99.90
2489;DHT22;1255;48.716;9.124;2023-08-17T10:28:11;26.40;99.90
2489;DHT22;1255;48.716;9.124;2023-08-17T10:30:39;26.30;99.90
2489;DHT22;1255;48.716;9.124;2023-08-17T10:33:06;26.40;99.90
2489;DHT22;1255;48.716;9.124;2023-08-17T10:35:34;26.50;99.90
2489;DHT22;1255;48.716;9.124;2023-08-17T10:38:02;26.70;99.90
2489;DHT22;1255;48.716;9.124;2023-08-17T10:40:35;27.00;99.90
2489;DHT22;1255;48.716;9.124;2023-08-17T10:43:03;27.20;99.90
2489;DHT22;1255;48.716;9.124;2023-08-17T10:45:30;27.30;99.90
2489;DHT22;1255;48.716;9.124;2023-08-17T10:48:26;27.40;99.90
2489;DHT22;1255;48.716;9.124;2023-08-17T10:51:04;27.50;99.90
2489;DHT22;1255;48.716;9.124;2023-08-17T10:53:35;27.60;99.90
2489;DHT22;1255;48.716;9.124;2023-08-17T10:56:07;27.80;99.90
2489;DHT22;1255;48.716;9.124;2023-08-17T10:58:34;27.70;99.90
2489;DHT22;1255;48.716;9.124;2023-08-17T11:01:01;27.60;99.90
2489;DHT22;1255;48.716;9.124;2023-08-17T11:05:57;27.60;99.90
2489;DHT22;1255;48.716;9.124;2023-08-17T11:08:28;27.60;99.90
2489;DHT22;1255;48.716;9.124;2023-08-17T11:11:05;27.60;99.90
2489;DHT22;1255;48.716;9.124;2023-08-17T11:13:34;27.60;99.90
2489;DHT22;1255;48.716;9.124;2023-08-17T11:16:03;27.70;99.90
2489;DHT22;1255;48.716;9.124;2023-08-17T11:18:30;27.90;99.90
2489;DHT22;1255;48.716;9.124;2023-08-17T11:20:59;28.10;99.90
2489;DHT22;1255;48.716;9.124;2023-08-17T11:23:29;28.20;99.90
2489;DHT22;1255;48.716;9.124;2023-08-17T11:25:56;28.40;99.90
2489;DHT22;1255;48.716;9.124;2023-08-17T11:28:23;28.40;99.90
2489;DHT22;1255;48.716;9.124;2023-08-17T11:30:56;28.40;99.90
2489;DHT22;1255;48.716;9.124;2023-08-17T11:33:24;28.40;99.90
2489;DHT22;1255;48.716;9.124;2023-08-17T11:35:53;28.50;99.90
2489;DHT22;1255;48.716;9.124;2023-08-17T11:38:21;28.50;99.90
2489;DHT22;1255;48.716;9.124;2023-08-17T11:40:48;28.70;99.90
2489;DHT22;1255;48.716;9.124;2023-08-17T11:43:15;28.90;99.90
2489;DHT22;1255;48.716;9.124;2023-08-17T11:45:43;29.00;99.90
2489;DHT22;1255;48.716;9.124;2023-08-17T11:48:10;29.10;99.90
2489;DHT22;1255;48.716;9.124;2023-08-17T11:50:38;29.10;99.90
2489;DHT22;1255;48.716;9.124;2023-08-17T11:53:04;29.00;99.90
2489;DHT22;1255;48.716;9.124;2023-08-17T11:55:33;28.90;99.90
2489;DHT22;1255;48.716;9.124;2023-08-17T11:58:01;28.70;99.90
2489;DHT22;1255;48.716;9.124;2023-08-17T12:00:34;28.50;99.90
2489;DHT22;1255;48.716;9.124;2023-08-17T12:03:01;28.40;99.90
2489;DHT22;1255;48.716;9.124;2023-08-17T12:05:31;28.30;99.90
2489;DHT22;1255;48.716;9.124;2023-08-17T12:07:59;28.20;99.90
2489;DHT22;1255;48.716;9.124;2023-08-17T12:10:27;28.20;99.90
2489;DHT22;1255;48.716;9.124;2023-08-17T12:12:58;28.20;99.90
2489;DHT22;1255;48.716;9.124;2023-08-17T12:15:30;28.20;99.90
2489;DHT22;1255;48.716;9.124;2023-08-17T12:17:59;28.10;99.90
2489;DHT22;1255;48.716;9.124;2023-08-17T12:20:26;27.90;99.90
2489;DHT22;1255;48.716;9.124;2023-08-17T12:22:53;27.70;99.90
2489;DHT22;1255;48.716;9.124;2023-08-17T12:25:21;27.60;99.90
2489;DHT22;1255;48.716;9.124;2023-08-17T12:27:48;27.40;99.90
2489;DHT22;1255;48.716;9.124;2023-08-17T12:30:25;27.20;99.90
2489;DHT22;1255;48.716;9.124;2023-08-17T12:32:52;27.10;99.90
2489;DHT22;1255;48.716;9.124;2023-08-17T12:35:19;27.00;99.90
2489;DHT22;1255;48.716;9.124;2023-08-17T12:37:49;26.90;99.90
2489;DHT22;1255;48.716;9.124;2023-08-17T12:40:16;26.80;99.90
2489;DHT22;1255;48.716;9.124;2023-08-17T12:42:42;26.70;99.90
2489;DHT22;1255;48.716;9.124;2023-08-17T12:45:09;26.70;99.90
2489;DHT22;1255;48.716;9.124;2023-08-17T12:47:38;26.50;99.90
2489;DHT22;1255;48.716;9.124;2023-08-17T12:50:05;26.50;99.90
2489;DHT22;1255;48.716;9.124;2023-08-17T12:52:32;26.40;99.90
2489;DHT22;1255;48.716;9.124;2023-08-17T12:54:59;26.30;99.90
2489;DHT22;1255;48.716;9.124;2023-08-17T12:57:25;26.20;99.90
2489;DHT22;1255;48.716;9.124;2023-08-17T12:59:53;26.10;99.90
2489;DHT22;1255;48.716;9.124;2023-08-17T13:02:20;26.00;99.90
2489;DHT22;1255;48.716;9.124;2023-08-17T13:04:48;26.00;99.90
2489;DHT22;1255;48.716;9.124;2023-08-17T13:07:14;25.90;99.90
2489;DHT22;1255;48.716;9.124;2023-08-17T13:09:42;25.80;99.90
2489;DHT22;1255;48.716;9.124;2023-08-17T13:12:10;25.60;99.90
2489;DHT22;1255;48.716;9.124;2023-08-17T13:14:37;25.60;99.90
2489;DHT22;1255;48.716;9.124;2023-08-17T13:17:04;25.50;99.90
2489;DHT22;1255;48.716;9.124;2023-08-17T13:19:30;25.50;99.90
2489;DHT22;1255;48.716;9.124;2023-08-17T13:21:58;25.40;99.90
2489;DHT22;1255;48.716;9.124;2023-08-17T13:24:25;25.30;99.90
2489;DHT22;1255;48.716;9.124;2023-08-17T13:26:52;25.20;99.90
2489;DHT22;1255;48.716;9.124;2023-08-17T13:29:20;25.20;99.90
2489;DHT22;1255;48.716;9.124;2023-08-17T13:31:47;25.00;99.90
2489;DHT22;1255;48.716;9.124;2023-08-17T13:34:14;25.00;99.90
2489;DHT22;1255;48.716;9.124;2023-08-17T13:36:40;24.90;99.90
2489;DHT22;1255;48.716;9.124;2023-08-17T13:39:09;24.80;99.90
2489;DHT22;1255;48.716;9.124;2023-08-17T13:41:36;24.70;99.90
2489;DHT22;1255;48.716;9.124;2023-08-17T13:44:03;24.60;99.90
2489;DHT22;1255;48.716;9.124;2023-08-17T13:46:30;24.60;99.90
2489;DHT22;1255;48.716;9.124;2023-08-17T13:48:56;24.50;99.90
2489;DHT22;1255;48.716;9.124;2023-08-17T13:51:23;24.40;99.90
2489;DHT22;1255;48.716;9.124;2023-08-17T13:53:50;24.40;99.90
2489;DHT22;1255;48.716;9.124;2023-08-17T13:56:18;24.40;99.90
2489;DHT22;1255;48.716;9.124;2023-08-17T13:58:45;24.30;99.90
2489;DHT22;1255;48.716;9.124;2023-08-17T14:01:11;24.30;99.90
2489;DHT22;1255;48.716;9.124;2023-08-17T14:03:39;24.30;99.90
2489;DHT22;1255;48.716;9.124;2023-08-17T14:06:08;24.30;99.90
2489;DHT22;1255;48.716;9.124;2023-08-17T14:08:34;24.20;99.90
2489;DHT22;1255;48.716;9.124;2023-08-17T14:11:01;24.20;99.90
2489;DHT22;1255;48.716;9.124;2023-08-17T14:13:30;24.20;99.90
2489;DHT22;1255;48.716;9.124;2023-08-17T14:15:57;24.20;99.90
2489;DHT22;1255;48.716;9.124;2023-08-17T14:18:25;24.20;99.90
2489;DHT22;1255;48.716;9.124;2023-08-17T14:20:51;24.20;99.90
2489;DHT22;1255;48.716;9.124;2023-08-17T14:23:18;24.20;99.90
2489;DHT22;1255;48.716;9.124;2023-08-17T14:25:45;24.20;99.90
2489;DHT22;1255;48.716;9.124;2023-08-17T14:28:12;24.20;99.90
2489;DHT22;1255;48.716;9.124;2023-08-17T14:30:40;24.20;99.90
2489;DHT22;1255;48.716;9.124;2023-08-17T14:33:08;24.10;99.90
2489;DHT22;1255;48.716;9.124;2023-08-17T14:35:34;24.20;99.90
2489;DHT22;1255;48.716;9.124;2023-08-17T14:38:01;24.20;99.90
2489;DHT22;1255;48.716;9.124;2023-08-17T14:40:28;24.20;99.90
2489;DHT22;1255;48.716;9.124;2023-08-17T14:42:55;24.20;99.90
2489;DHT22;1255;48.716;9.124;2023-08-17T14:45:22;24.20;99.90
2489;DHT22;1255;48.716;9.124;2023-08-17T14:47:50;24.20;99.90
2489;DHT22;1255;48.716;9.124;2023-08-17T14:50:16;24.30;99.90
2489;DHT22;1255;48.716;9.124;2023-08-17T14:52:43;24.30;99.90
2489;DHT22;1255;48.716;9.124;2023-08-17T14:55:10;24.30;99.90
2489;DHT22;1255;48.716;9.124;2023-08-17T14:57:36;24.30;99.90
2489;DHT22;1255;48.716;9.124;2023-08-17T15:00:04;24.40;99.90
2489;DHT22;1255;48.716;9.124;2023-08-17T15:02:31;24.40;99.90
2489;DHT22;1255;48.716;9.124;2023-08-17T15:04:59;24.50;99.90
2489;DHT22;1255;48.716;9.124;2023-08-17T15:07:25;24.50;99.90
2489;DHT22;1255;48.716;9.124;2023-08-17T15:09:53;24.50;99.90
2489;DHT22;1255;48.716;9.124;2023-08-17T15:12:19;24.60;99.90
2489;DHT22;1255;48.716;9.124;2023-08-17T15:14:47;24.60;99.90
2489;DHT22;1255;48.716;9.124;2023-08-17T15:17:15;24.70;99.90
2489;DHT22;1255;48.716;9.124;2023-08-17T15:19:42;24.70;99.90
2489;DHT22;1255;48.716;9.124;2023-08-17T15:22:10;24.70;99.90
2489;DHT22;1255;48.716;9.124;2023-08-17T15:24:37;24.70;99.90
2489;DHT22;1255;48.716;9.124;2023-08-17T15:27:04;24.80;99.90
2489;DHT22;1255;48.716;9.124;2023-08-17T15:29:31;24.90;99.90
2489;DHT22;1255;48.716;9.124;2023-08-17T15:31:58;25.00;99.90
2489;DHT22;1255;48.716;9.124;2023-08-17T15:34:25;25.10;99.90
2489;DHT22;1255;48.716;9.124;2023-08-17T15:36:52;25.10;99.90
2489;DHT22;1255;48.716;9.124;2023-08-17T15:39:20;25.20;99.90
2489;DHT22;1255;48.716;9.124;2023-08-17T15:41:47;25.10;99.90
2489;DHT22;1255;48.716;9.124;2023-08-17T15:44:15;25.10;99.90
2489;DHT22;1255;48.716;9.124;2023-08-17T15:46:41;25.10;99.90
2489;DHT22;1255;48.716;9.124;2023-08-17T15:49:08;25.10;99.90
2489;DHT22;1255;48.716;9.124;2023-08-17T15:51:37;25.10;99.90
2489;DHT22;1255;48.716;9.124;2023-08-17T15:54:05;25.10;99.90
2489;DHT22;1255;48.716;9.124;2023-08-17T15:56:33;25.20;99.90
2489;DHT22;1255;48.716;9.124;2023-08-17T15:59:00;25.10;99.90
2489;DHT22;1255;48.716;9.124;2023-08-17T16:01:27;25.10;99.90
2489;DHT22;1255;48.716;9.124;2023-08-17T16:03:54;25.20;99.90
2489;DHT22;1255;48.716;9.124;2023-08-17T16:06:20;25.20;99.90